createdAt,value
2018-10-18T00:01:12.408Z,12.13
2018-10-18T00:11:16.914Z,12.03
2018-10-18T00:21:21.417Z,12.40
2018-10-18T00:31:26.126Z,12.17
2018-10-18T00:41:30.609Z,11.90
2018-10-18T00:51:35.167Z,11.90
2018-10-18T03:10:34.966Z,11.17
2018-10-18T03:20:39.449Z,11.40
2018-10-18T03:30:43.938Z,9.97
2018-10-18T03:40:48.162Z,10.73
2018-10-18T03:50:52.686Z,10.90
2018-10-18T04:00:57.189Z,10.60
2018-10-18T04:11:01.698Z,11.70
2018-10-18T04:21:06.925Z,10.87
2018-10-18T04:31:11.425Z,11.07
2018-10-18T04:41:15.907Z,10.40
2018-10-18T04:51:20.390Z,10.00
2018-10-18T05:01:25.121Z,10.67
2018-10-18T05:11:29.729Z,10.23
2018-10-18T05:21:34.458Z,9.63
2018-10-18T05:31:38.946Z,8.93
2018-10-18T05:41:43.622Z,10.17
2018-10-18T05:51:48.117Z,10.60
2018-10-18T06:01:52.622Z,9.90
2018-10-18T06:11:57.222Z,10.47
2018-10-18T06:22:01.773Z,10.17
2018-10-18T06:32:06.267Z,10.23
2018-10-18T06:42:10.757Z,12.30
2018-10-18T06:52:15.246Z,11.60
2018-10-18T07:02:19.767Z,11.20
2018-10-18T07:12:24.274Z,11.20
2018-10-18T07:22:28.798Z,11.47
2018-10-18T07:32:34.086Z,11.17
2018-10-18T07:42:38.632Z,11.27
2018-10-18T07:52:43.860Z,12.00
2018-10-18T08:02:48.492Z,11.83
2018-10-18T08:12:52.996Z,11.77
2018-10-18T08:22:57.573Z,11.27
2018-10-18T08:33:02.055Z,11.50
2018-10-18T08:43:06.608Z,11.20
2018-10-18T08:53:11.254Z,11.50
2018-10-18T09:03:15.769Z,10.50
2018-10-18T09:13:20.281Z,10.20
2018-10-18T09:23:31.482Z,9.57
2018-10-18T09:33:35.970Z,9.50
2018-10-18T09:43:40.487Z,9.63
2018-10-18T09:53:44.994Z,10.20
2018-10-18T10:03:49.495Z,9.47
2018-10-18T10:13:54.038Z,9.70
2018-10-18T10:23:58.532Z,9.37
2018-10-18T10:34:03.026Z,9.23
2018-10-18T10:44:10.064Z,9.10
2018-10-18T10:54:14.622Z,10.17
2018-10-18T11:04:19.375Z,9.07
2018-10-18T11:14:23.955Z,9.57
2018-10-18T11:24:28.529Z,8.43
2018-10-18T11:34:34.668Z,9.30
2018-10-18T11:44:39.909Z,9.03
2018-10-18T11:54:44.454Z,8.57
2018-10-18T12:04:49.030Z,9.30
2018-10-18T12:14:53.967Z,8.60
2018-10-18T12:24:58.677Z,8.70
2018-10-18T12:35:03.389Z,8.83
2018-10-18T12:45:09.442Z,8.00
2018-10-18T12:55:13.926Z,8.67
2018-10-18T13:05:18.413Z,8.63
2018-10-18T13:15:22.936Z,8.50
2018-10-18T13:25:27.434Z,8.60
2018-10-18T13:35:32.494Z,9.13
2018-10-18T13:45:36.982Z,8.37
2018-10-18T13:55:41.474Z,8.17
2018-10-18T14:05:45.991Z,8.80
2018-10-18T14:15:50.697Z,9.00
2018-10-18T14:25:55.407Z,9.00
2018-10-18T14:36:00.046Z,9.03
2018-10-18T14:46:04.262Z,8.70
2018-10-18T14:56:08.893Z,8.80
2018-10-18T15:06:13.547Z,14.97
2018-10-18T15:16:18.066Z,15.47
2018-10-18T15:26:22.622Z,13.23
2018-10-18T15:36:27.380Z,15.73
2018-10-18T15:46:31.938Z,14.40
2018-10-18T15:56:36.799Z,17.10
2018-10-18T16:06:41.389Z,15.37
2018-10-18T16:16:45.960Z,14.40
2018-10-18T16:26:50.533Z,14.23
2018-10-18T16:36:55.175Z,14.07
2018-10-18T16:46:59.695Z,14.00
2018-10-18T16:57:04.351Z,14.00
2018-10-18T17:07:09.025Z,14.47
2018-10-18T17:17:13.581Z,13.87
2018-10-18T17:27:18.147Z,14.80
2018-10-18T17:37:22.841Z,14.10
2018-10-18T17:47:27.413Z,14.00
2018-10-18T17:57:31.987Z,13.33
2018-10-18T18:07:36.735Z,13.67
2018-10-18T18:17:41.561Z,13.03
2018-10-18T18:27:46.150Z,15.30
2018-10-18T18:37:50.647Z,14.47
2018-10-18T18:47:55.176Z,13.70
2018-10-18T18:58:02.569Z,15.43
2018-10-18T19:08:07.238Z,14.50
2018-10-18T19:18:11.759Z,14.57
2018-10-18T19:28:16.270Z,13.73
2018-10-18T19:38:20.784Z,14.73
2018-10-18T19:48:25.519Z,15.13
2018-10-18T19:58:30.177Z,15.10
2018-10-18T20:08:34.790Z,15.00
2018-10-18T20:18:39.408Z,16.10
2018-10-18T20:28:43.758Z,15.13
2018-10-18T20:38:48.358Z,14.40
2018-10-18T20:48:53.187Z,15.17
2018-10-18T20:58:58.764Z,14.37
2018-10-18T21:09:03.364Z,14.13
2018-10-18T21:19:08.038Z,13.77
2018-10-18T21:29:12.623Z,13.90
2018-10-18T21:39:28.161Z,13.47
2018-10-18T21:49:33.111Z,13.80
2018-10-18T21:59:37.606Z,13.17
2018-10-18T22:09:42.155Z,15.07
2018-10-18T22:19:46.723Z,13.97
2018-10-18T22:29:51.295Z,14.20
2018-10-18T22:39:55.791Z,13.03
2018-10-18T22:50:01.138Z,14.67
2018-10-18T23:00:07.081Z,14.67
2018-10-18T23:10:11.630Z,13.30
2018-10-18T23:20:16.202Z,13.57
2018-10-18T23:30:20.777Z,13.93
2018-10-18T23:40:25.861Z,14.50
2018-10-18T23:50:30.428Z,12.70
